Airfield :
LOGIN :

Register | Disclaimer

   EN    FR    IT 

 










Legend :    VFR   Marginal VFR   IFR   Intensive IFR   Very Intensive IFR
Visi :
Ceiling :
>= 8 km
>= 3000ft
5 to 8 km
1000 to 3000 ft
1500m to 5 km
500 to 1000 ft
800 to 1500m
200 to 500 ft
< 800m
< 200 ft
Symbols :   Thunderstorms  Fog  Heavy snow  Heavy precipitations  Wind > 20 kt
SIGMETs :     Misc.  Thunderstorms  Icing  Turbulence  Mountain Waves  Volcanic Ashes






- Airport Elevation : 844 ft
- IATA code : OSR


LKMT - Ostrava-Mosnov

CURRENT METAR :
  • 220800Z 22011KT 7000 -RA FEW014 BKN022 19/17 Q1013 NOSIG

EXPIRED METARs :
  • 220730Z 18007KT 9999 -RA FEW010 19/16 Q1013 TEMPO 4500 SHRA SCT025CB
  • 220700Z 22009KT 9999 FEW015 19/17 Q1013 TEMPO 4500 SHRA SCT025CB
  • 220630Z 20008KT 9999 -RA FEW035 19/17 Q1013 NOSIG
  • 220600Z 24008KT 210V300 9999 VCTS SCT022CB BKN045 18/17 Q1012 NOSIG
  • 220530Z 23011KT 9999 VCTS VCSH FEW030CB 19/17 Q1012 TEMPO 21012G30KT 4500 TSRA BKN025CB
  • 220500Z 18005KT 9999 SCT049 19/17 Q1012 TEMPO 4500 TSRA SCT025CB
  • 220430Z 23009KT 9999 BKN046 19/17 Q1012 NOSIG
  • 220400Z 21008KT 9999 SCT048 20/17 Q1012 NOSIG
  • 220330Z 24010KT 9999 BKN049 20/18 Q1011 NOSIG

TAF TAF LKMT
Valid from the 22 at 06:00 until the 23 at 06:00 UTC


220500Z 2206/2306 21008KT 9999 SCT035
TEMPO 2206/2215 7000 SHRA BKN020TCU
PROB40
TEMPO 2207/2212 24015G30KT 4000 TSRA BKN013CB
BECMG 2218/2220 VRB02KT CAVOK



MET'MAP, your aeronautical weather chart ! - Copyright ORBIFLY December 2007 - Disclaimer

ORBIFLY MET'MAP TEAM :

Programming & Development : Alexandra Zaïnal
Original concept : Baudouin d'Aumeries
Technical & hardware support : Manuel Goepfert
Assistance : Marc-Olivier Méhu




SOURCES & CREDITS :

   NOAA